createdAt,value
2019-05-26T00:01:06.339Z,16.00
2019-05-26T00:03:34.806Z,17.03
2019-05-26T00:06:03.251Z,20.90
2019-05-26T00:08:31.664Z,15.50
2019-05-26T00:11:00.213Z,23.80
2019-05-26T00:13:28.624Z,16.43
2019-05-26T00:15:57.071Z,15.47
2019-05-26T00:18:25.516Z,12.70
2019-05-26T00:20:53.946Z,18.23
2019-05-26T00:23:22.418Z,21.07
2019-05-26T00:25:50.926Z,14.93
2019-05-26T00:28:19.374Z,21.93
2019-05-26T00:30:47.770Z,23.00
2019-05-26T00:33:16.217Z,21.50
2019-05-26T00:35:44.739Z,17.03
2019-05-26T00:38:13.170Z,17.60
2019-05-26T00:40:41.596Z,16.83
2019-05-26T00:43:10.119Z,14.80
2019-05-26T00:45:38.620Z,15.90
2019-05-26T00:48:07.248Z,20.07
2019-05-26T00:50:35.933Z,20.90
2019-05-26T00:53:04.572Z,15.20
2019-05-26T00:55:33.140Z,17.73
2019-05-26T00:58:01.576Z,19.03
2019-05-26T01:00:41.754Z,15.90
2019-05-26T01:03:11.602Z,18.50
2019-05-26T01:05:40.378Z,14.93
2019-05-26T01:08:09.456Z,15.47
2019-05-26T01:10:37.935Z,15.50
2019-05-26T01:13:06.775Z,16.90
2019-05-26T01:15:35.293Z,15.50
2019-05-26T01:18:04.349Z,15.93
2019-05-26T01:20:32.813Z,13.07
2019-05-26T01:23:01.226Z,15.80
2019-05-26T01:25:29.906Z,13.87
2019-05-26T01:27:58.397Z,13.67
2019-05-26T01:30:35.436Z,13.60
2019-05-26T01:33:04.201Z,18.13
2019-05-26T01:35:33.250Z,19.17
2019-05-26T01:38:03.851Z,26.70
2019-05-26T01:40:45.841Z,13.23
2019-05-26T01:43:14.389Z,15.00
2019-05-26T01:45:42.843Z,21.07
2019-05-26T01:48:11.522Z,20.53
2019-05-26T01:50:40.065Z,17.00
2019-05-26T01:53:08.587Z,21.20
2019-05-26T01:55:37.028Z,20.60
2019-05-26T01:58:05.759Z,17.47
2019-05-26T02:00:34.483Z,21.43
2019-05-26T02:03:02.965Z,20.80
2019-05-26T02:05:31.569Z,24.43
2019-05-26T02:08:01.368Z,24.97
2019-05-26T02:10:29.817Z,20.80
2019-05-26T02:12:58.313Z,19.33
2019-05-26T02:15:28.197Z,18.40
2019-05-26T02:17:56.611Z,18.23
2019-05-26T02:20:25.801Z,21.13
2019-05-26T02:22:54.212Z,18.97
2019-05-26T02:25:23.777Z,23.33
2019-05-26T02:27:52.283Z,22.17
2019-05-26T02:30:20.883Z,29.57
2019-05-26T02:32:50.790Z,24.20
2019-05-26T02:35:20.279Z,29.00
2019-05-26T02:37:48.694Z,37.50
2019-05-26T02:40:18.087Z,30.30
2019-05-26T02:42:46.566Z,34.00
2019-05-26T02:45:16.362Z,30.37
2019-05-26T02:47:45.890Z,34.73
2019-05-26T02:50:15.880Z,30.70
2019-05-26T02:52:44.441Z,35.50
2019-05-26T02:55:13.529Z,30.67
2019-05-26T02:57:41.955Z,35.27
2019-05-26T03:00:11.873Z,37.60
2019-05-26T03:02:40.544Z,36.60
2019-05-26T03:05:13.779Z,74.13
2019-05-26T03:07:44.533Z,41.10
2019-05-26T03:10:14.905Z,45.03
2019-05-26T03:12:43.717Z,41.70
2019-05-26T03:15:13.792Z,39.60
2019-05-26T03:17:43.245Z,39.70
2019-05-26T03:20:15.347Z,57.60
2019-05-26T03:22:45.512Z,46.70
2019-05-26T03:25:14.774Z,50.67
2019-05-26T03:27:43.208Z,52.50
2019-05-26T03:30:12.869Z,47.80
2019-05-26T03:32:41.312Z,51.00
2019-05-26T03:35:10.231Z,50.30
2019-05-26T03:37:38.756Z,54.20
2019-05-26T03:40:08.401Z,48.73
2019-05-26T03:42:36.898Z,54.30
2019-05-26T03:45:06.859Z,53.77
2019-05-26T03:47:35.299Z,99.23
2019-05-26T03:50:08.027Z,92.77
2019-05-26T03:52:36.587Z,65.60
2019-05-26T03:55:06.948Z,83.40
2019-05-26T03:57:36.584Z,63.03
2019-05-26T04:00:06.880Z,58.43
2019-05-26T04:02:35.390Z,58.43
2019-05-26T04:05:05.943Z,65.80
2019-05-26T04:07:34.476Z,58.77
2019-05-26T04:10:06.777Z,63.73
2019-05-26T04:12:35.352Z,78.17
2019-05-26T04:15:08.421Z,67.20
2019-05-26T04:17:36.872Z,59.50
2019-05-26T04:20:06.439Z,53.30
2019-05-26T04:22:34.893Z,54.97
2019-05-26T04:25:05.118Z,70.73
2019-05-26T04:27:33.724Z,50.90
2019-05-26T04:30:02.300Z,53.53
2019-05-26T04:32:30.748Z,53.90
2019-05-26T04:34:59.166Z,54.13
2019-05-26T04:37:27.614Z,60.83
2019-05-26T04:39:56.737Z,50.10
2019-05-26T04:42:25.150Z,45.50
2019-05-26T04:44:55.594Z,45.80
2019-05-26T04:47:24.017Z,42.03
2019-05-26T04:49:52.624Z,41.40
2019-05-26T04:52:21.051Z,37.30
2019-05-26T04:54:49.474Z,40.60
2019-05-26T04:57:17.939Z,39.00
2019-05-26T04:59:46.369Z,46.50
2019-05-26T05:02:14.797Z,41.57
2019-05-26T05:04:46.201Z,33.53
2019-05-26T05:07:15.315Z,35.40
2019-05-26T05:09:43.739Z,37.67
2019-05-26T05:12:12.644Z,32.83
2019-05-26T05:14:41.147Z,29.97
2019-05-26T05:17:09.582Z,30.57
2019-05-26T05:19:37.997Z,26.97
2019-05-26T05:22:06.443Z,27.57
2019-05-26T05:24:34.853Z,26.80
2019-05-26T05:27:03.304Z,31.63
2019-05-26T05:29:31.744Z,26.97
2019-05-26T05:32:00.179Z,27.63
2019-05-26T05:34:28.624Z,25.33
2019-05-26T05:36:57.086Z,22.60
2019-05-26T05:39:25.533Z,26.57
2019-05-26T05:41:56.571Z,22.00
2019-05-26T05:44:25.009Z,31.70
2019-05-26T05:46:53.565Z,22.07
2019-05-26T05:49:22.042Z,19.57
2019-05-26T05:51:50.497Z,19.07
2019-05-26T05:54:18.991Z,18.17
2019-05-26T05:56:47.547Z,22.30
2019-05-26T05:59:16.005Z,23.63
2019-05-26T06:01:44.507Z,19.93
2019-05-26T06:04:13.049Z,20.60
2019-05-26T06:06:42.845Z,23.00
2019-05-26T06:09:11.390Z,19.70
2019-05-26T06:11:39.857Z,18.67
2019-05-26T06:14:08.379Z,18.80
2019-05-26T06:16:36.813Z,29.63
2019-05-26T06:19:05.291Z,19.43
2019-05-26T06:21:33.826Z,17.37
2019-05-26T06:24:02.283Z,22.60
2019-05-26T06:26:30.787Z,17.57
2019-05-26T06:28:59.204Z,16.27
2019-05-26T06:31:27.673Z,15.00
2019-05-26T06:33:56.091Z,12.33
2019-05-26T06:36:24.550Z,11.90
2019-05-26T06:38:52.978Z,14.70
2019-05-26T06:41:32.827Z,13.73
2019-05-26T06:43:51.626Z,13.27
2019-05-26T06:46:20.113Z,14.33
2019-05-26T06:48:48.749Z,13.10
2019-05-26T06:51:17.318Z,11.67
2019-05-26T06:53:45.871Z,13.40
2019-05-26T06:56:14.551Z,14.50
2019-05-26T06:58:44.780Z,10.13
2019-05-26T07:01:13.224Z,18.90
2019-05-26T07:03:41.675Z,12.20
2019-05-26T07:06:10.225Z,9.90
2019-05-26T07:08:38.721Z,13.25
2019-05-26T07:11:07.213Z,11.93
2019-05-26T07:13:35.661Z,10.00
2019-05-26T07:16:04.581Z,9.10
2019-05-26T07:18:33.080Z,9.30
2019-05-26T07:21:01.502Z,11.65
2019-05-26T07:23:29.949Z,12.98
2019-05-26T07:25:58.400Z,8.15
2019-05-26T07:28:26.820Z,7.80
2019-05-26T07:30:55.328Z,8.50
2019-05-26T07:33:23.786Z,6.80
2019-05-26T07:35:52.225Z,9.90
2019-05-26T07:38:20.800Z,8.43
2019-05-26T07:40:49.342Z,7.15
2019-05-26T07:43:17.907Z,6.33
2019-05-26T07:45:46.307Z,10.20
2019-05-26T07:48:15.042Z,8.63
2019-05-26T07:50:43.733Z,8.08
2019-05-26T07:53:12.186Z,8.75
2019-05-26T07:55:40.640Z,6.85
2019-05-26T07:58:09.226Z,4.55
2019-05-26T08:00:43.917Z,6.55
2019-05-26T08:03:16.203Z,5.35
2019-05-26T08:05:51.637Z,8.40
2019-05-26T08:08:29.110Z,6.58
2019-05-26T08:10:59.371Z,3.90
2019-05-26T08:13:32.718Z,6.62
2019-05-26T08:16:07.110Z,5.78
2019-05-26T08:18:39.652Z,4.05
2019-05-26T08:21:13.206Z,4.15
2019-05-26T08:23:41.606Z,6.42
2019-05-26T08:26:10.198Z,5.50
2019-05-26T08:28:41.165Z,4.42
2019-05-26T08:31:15.284Z,5.20
2019-05-26T08:33:48.507Z,7.70
2019-05-26T08:36:18.327Z,5.25
2019-05-26T08:38:46.772Z,4.10
2019-05-26T08:41:18.359Z,4.12
2019-05-26T08:43:49.478Z,3.55
2019-05-26T08:46:19.945Z,4.28
2019-05-26T08:48:48.183Z,5.58
2019-05-26T08:51:18.468Z,3.40
2019-05-26T08:53:50.332Z,8.55
2019-05-26T08:56:18.769Z,2.72
2019-05-26T08:58:48.712Z,3.20
2019-05-26T09:01:20.286Z,5.83
2019-05-26T09:03:51.300Z,4.80
2019-05-26T09:06:20.106Z,3.05
2019-05-26T09:08:49.967Z,3.12
2019-05-26T09:11:21.579Z,2.37
2019-05-26T09:13:57.806Z,4.47
2019-05-26T09:16:28.446Z,11.00
2019-05-26T09:19:00.320Z,4.33
2019-05-26T09:21:28.764Z,3.42
2019-05-26T09:23:58.336Z,3.47
2019-05-26T09:26:29.253Z,4.45
2019-05-26T09:29:02.539Z,1.82
2019-05-26T09:31:35.189Z,2.20
2019-05-26T09:34:03.513Z,2.20
2019-05-26T09:36:31.932Z,1.60
2019-05-26T09:39:05.512Z,4.70
2019-05-26T09:41:37.838Z,5.00
2019-05-26T09:44:10.444Z,1.80
2019-05-26T09:46:39.286Z,1.60
2019-05-26T09:49:08.054Z,1.80
2019-05-26T09:51:39.506Z,3.50
2019-05-26T09:54:12.643Z,1.82
2019-05-26T09:56:44.833Z,3.67
2019-05-26T09:59:13.370Z,4.70
2019-05-26T10:01:41.806Z,3.52
2019-05-26T10:04:14.338Z,3.22
2019-05-26T10:06:46.336Z,1.75
2019-05-26T10:09:21.670Z,4.43
2019-05-26T10:11:54.630Z,2.80
2019-05-26T10:14:23.345Z,2.13
2019-05-26T10:16:52.122Z,2.20
2019-05-26T10:19:23.445Z,10.80
2019-05-26T10:21:56.429Z,2.80
2019-05-26T10:24:29.756Z,9.20
2019-05-26T10:26:59.667Z,5.63
2019-05-26T10:29:28.397Z,6.73
2019-05-26T10:31:58.638Z,6.77
2019-05-26T10:34:31.672Z,5.87
2019-05-26T10:37:04.214Z,3.63
2019-05-26T10:39:32.857Z,4.47
2019-05-26T10:42:01.328Z,7.50
2019-05-26T10:44:32.993Z,3.80
2019-05-26T10:47:05.391Z,5.20
2019-05-26T10:49:33.833Z,25.50
2019-05-26T10:52:02.530Z,8.10
2019-05-26T10:54:31.114Z,3.07
2019-05-26T10:56:59.535Z,5.10
2019-05-26T10:59:28.079Z,2.33
2019-05-26T11:01:56.604Z,4.73
2019-05-26T11:04:25.047Z,6.03
2019-05-26T11:06:53.528Z,4.33
2019-05-26T11:09:22.013Z,2.80
2019-05-26T11:11:50.464Z,2.40
2019-05-26T11:14:18.918Z,2.30
2019-05-26T11:16:47.414Z,3.40
2019-05-26T11:19:15.936Z,3.03
2019-05-26T11:21:44.399Z,2.60
2019-05-26T11:24:12.854Z,3.10
2019-05-26T11:26:41.320Z,2.10
2019-05-26T11:29:12.992Z,7.83
2019-05-26T11:31:41.444Z,2.40
2019-05-26T11:34:09.996Z,1.60
2019-05-26T11:36:38.460Z,2.40
2019-05-26T11:39:08.123Z,2.30
2019-05-26T11:41:36.652Z,2.87
2019-05-26T11:44:17.070Z,2.87
2019-05-26T11:46:35.507Z,3.40
2019-05-26T11:49:03.980Z,2.00
2019-05-26T11:51:32.513Z,2.33
2019-05-26T11:54:01.084Z,3.17
2019-05-26T11:56:29.649Z,1.90
2019-05-26T11:58:58.112Z,2.70
2019-05-26T12:01:26.696Z,2.80
2019-05-26T12:03:55.166Z,2.03
2019-05-26T12:06:23.593Z,1.70
2019-05-26T12:08:52.156Z,2.17
2019-05-26T12:11:20.663Z,2.53
2019-05-26T12:13:49.091Z,3.00
2019-05-26T12:16:17.555Z,1.93
2019-05-26T12:18:45.992Z,3.30
2019-05-26T12:21:14.486Z,2.83
2019-05-26T12:23:42.937Z,3.90
2019-05-26T12:26:11.398Z,9.80
2019-05-26T12:28:39.876Z,2.07
2019-05-26T12:31:08.320Z,2.20
2019-05-26T12:33:36.721Z,2.40
2019-05-26T12:36:05.526Z,7.93
2019-05-26T12:38:35.608Z,6.17
2019-05-26T12:41:04.117Z,1.90
2019-05-26T12:43:32.642Z,1.80
2019-05-26T12:46:01.084Z,2.00
2019-05-26T12:48:29.540Z,1.97
2019-05-26T12:50:58.128Z,4.40
2019-05-26T12:53:26.572Z,3.43
2019-05-26T12:55:55.018Z,2.30
2019-05-26T12:58:23.465Z,8.40
2019-05-26T13:00:54.787Z,2.20
2019-05-26T13:03:22.221Z,2.30
2019-05-26T13:05:50.654Z,3.97
2019-05-26T13:08:19.205Z,3.17
2019-05-26T13:10:47.735Z,2.20
2019-05-26T13:13:16.546Z,3.87
2019-05-26T13:15:44.962Z,2.13
2019-05-26T13:18:13.652Z,2.37
2019-05-26T13:20:42.143Z,2.90
2019-05-26T13:23:10.644Z,4.00
2019-05-26T13:25:39.154Z,2.40
2019-05-26T13:28:07.689Z,3.43
2019-05-26T13:30:36.387Z,5.73
2019-05-26T13:33:05.393Z,2.70
2019-05-26T13:35:33.947Z,2.70
2019-05-26T13:38:02.382Z,2.27
2019-05-26T13:40:30.833Z,3.30
2019-05-26T13:42:59.271Z,3.13
2019-05-26T13:45:27.761Z,2.37
2019-05-26T13:47:56.312Z,4.30
2019-05-26T13:50:25.264Z,5.60
2019-05-26T13:52:53.779Z,2.20
2019-05-26T13:55:23.590Z,2.00
2019-05-26T13:57:52.566Z,7.20
2019-05-26T14:02:56.756Z,9.73
2019-05-26T14:05:29.680Z,4.20
2019-05-26T14:07:58.888Z,3.73
2019-05-26T14:10:38.521Z,2.73
2019-05-26T14:13:11.993Z,3.03
2019-05-26T14:15:41.804Z,11.43
2019-05-26T14:18:11.201Z,5.50
2019-05-26T14:20:42.591Z,9.30
2019-05-26T14:23:11.871Z,2.47
2019-05-26T14:25:40.585Z,7.03
2019-05-26T14:28:09.176Z,8.30
2019-05-26T14:30:37.960Z,2.67
2019-05-26T14:33:06.752Z,3.63
2019-05-26T14:35:35.200Z,2.50
2019-05-26T14:38:03.704Z,3.20
2019-05-26T14:40:32.211Z,3.20
2019-05-26T14:43:00.646Z,6.87
2019-05-26T14:45:29.116Z,2.97
2019-05-26T14:47:57.552Z,3.50
2019-05-26T14:50:26.628Z,3.67
2019-05-26T14:52:55.147Z,4.57
2019-05-26T14:55:23.778Z,10.70
2019-05-26T14:57:52.218Z,3.57
2019-05-26T15:00:21.381Z,11.00
2019-05-26T15:02:49.821Z,6.47
2019-05-26T15:05:18.533Z,3.10
2019-05-26T15:07:47.802Z,5.57
2019-05-26T15:10:16.612Z,4.40
2019-05-26T15:12:45.051Z,3.93
2019-05-26T15:15:15.002Z,7.47
2019-05-26T15:17:43.453Z,3.67
2019-05-26T15:20:13.577Z,18.53
2019-05-26T15:22:42.025Z,3.80
2019-05-26T15:25:10.522Z,4.10
2019-05-26T15:27:39.033Z,4.27
2019-05-26T15:30:09.205Z,3.60
2019-05-26T15:32:37.649Z,5.43
2019-05-26T15:35:07.526Z,3.07
2019-05-26T15:37:35.981Z,3.37
2019-05-26T15:40:06.375Z,9.43
2019-05-26T15:42:34.800Z,3.63
2019-05-26T15:45:03.716Z,8.60
2019-05-26T15:47:32.145Z,3.70
2019-05-26T15:50:00.586Z,4.60
2019-05-26T15:52:29.123Z,3.70
2019-05-26T15:54:57.538Z,4.20
2019-05-26T15:57:26.048Z,6.47
2019-05-26T15:59:54.737Z,15.40
2019-05-26T16:02:23.413Z,18.80
2019-05-26T16:04:51.867Z,12.43
2019-05-26T16:07:20.313Z,4.03
2019-05-26T16:09:48.925Z,4.13
2019-05-26T16:12:17.458Z,3.50
2019-05-26T16:14:46.017Z,4.40
2019-05-26T16:17:14.474Z,7.43
2019-05-26T16:19:42.943Z,6.30
2019-05-26T16:22:11.398Z,5.63
2019-05-26T16:24:44.133Z,21.33
2019-05-26T16:27:19.101Z,14.17
2019-05-26T16:29:42.845Z,8.70
2019-05-26T16:32:11.385Z,7.00
2019-05-26T16:34:39.805Z,4.17
2019-05-26T16:37:08.266Z,16.50
2019-05-26T16:39:37.530Z,5.40
2019-05-26T16:42:06.135Z,8.70
2019-05-26T16:44:34.589Z,5.17
2019-05-26T16:47:03.076Z,10.50
2019-05-26T16:49:31.525Z,3.80
2019-05-26T16:51:59.949Z,9.50
2019-05-26T16:54:28.389Z,6.43
2019-05-26T16:56:56.861Z,28.67
2019-05-26T16:59:25.279Z,7.77
2019-05-26T17:01:53.723Z,4.17
2019-05-26T17:04:22.215Z,6.97
2019-05-26T17:06:50.649Z,3.70
2019-05-26T17:09:19.138Z,5.73
2019-05-26T17:11:47.697Z,7.20
2019-05-26T17:14:16.179Z,21.60
2019-05-26T17:16:44.609Z,5.50
2019-05-26T17:19:13.106Z,13.97
2019-05-26T17:21:41.553Z,10.70
2019-05-26T17:24:10.005Z,12.17
2019-05-26T17:26:38.501Z,15.63
2019-05-26T17:29:06.921Z,5.40
2019-05-26T17:31:35.401Z,7.53
2019-05-26T17:34:04.011Z,31.43
2019-05-26T17:36:32.416Z,12.10
2019-05-26T17:39:00.933Z,11.20
2019-05-26T17:41:29.343Z,5.00
2019-05-26T17:43:57.917Z,7.87
2019-05-26T17:46:26.532Z,23.20
2019-05-26T17:48:54.982Z,23.23
2019-05-26T17:51:23.432Z,10.53
2019-05-26T17:53:51.881Z,6.53
2019-05-26T17:56:20.287Z,8.63
2019-05-26T17:58:48.779Z,18.93
2019-05-26T18:01:17.196Z,6.90
2019-05-26T18:03:45.713Z,7.50
2019-05-26T18:06:14.155Z,7.47
2019-05-26T18:08:42.587Z,4.70
2019-05-26T18:11:11.551Z,24.00
2019-05-26T18:13:39.981Z,30.83
2019-05-26T18:16:08.433Z,10.67
2019-05-26T18:18:36.880Z,6.67
2019-05-26T18:21:05.385Z,3.90
2019-05-26T18:23:33.801Z,7.00
2019-05-26T18:26:02.250Z,9.37
2019-05-26T18:28:30.679Z,6.20
2019-05-26T18:30:59.145Z,7.23
2019-05-26T18:33:27.619Z,3.40
2019-05-26T18:35:56.124Z,3.33
2019-05-26T18:38:24.531Z,4.20
2019-05-26T18:40:52.996Z,11.33
2019-05-26T18:43:21.404Z,8.27
2019-05-26T18:45:49.848Z,4.30
2019-05-26T18:48:18.265Z,10.77
2019-05-26T18:50:46.721Z,6.07
2019-05-26T18:53:15.162Z,5.20
2019-05-26T18:55:43.642Z,4.10
2019-05-26T18:58:12.076Z,4.00
2019-05-26T19:00:40.525Z,7.67
2019-05-26T19:03:08.964Z,6.40
2019-05-26T19:05:38.440Z,5.50
2019-05-26T19:08:07.220Z,12.07
2019-05-26T19:10:35.743Z,31.33
2019-05-26T19:13:04.421Z,14.37
2019-05-26T19:15:32.868Z,10.17
2019-05-26T19:18:01.306Z,5.23
2019-05-26T19:20:29.739Z,8.10
2019-05-26T19:22:58.303Z,7.07
2019-05-26T19:25:26.749Z,14.87
2019-05-26T19:27:55.167Z,5.97
2019-05-26T19:30:23.834Z,26.07
2019-05-26T19:32:52.305Z,20.30
2019-05-26T19:35:20.973Z,63.83
2019-05-26T19:37:49.516Z,42.00
2019-05-26T19:40:18.379Z,16.93
2019-05-26T19:42:46.816Z,9.10
2019-05-26T19:45:15.309Z,9.23
2019-05-26T19:47:43.828Z,4.87
2019-05-26T19:50:12.584Z,43.60
2019-05-26T19:52:40.993Z,24.50
2019-05-26T19:55:09.672Z,10.33
2019-05-26T19:57:38.129Z,12.70
2019-05-26T20:00:12.601Z,8.20
2019-05-26T20:02:41.291Z,8.67
2019-05-26T20:05:10.183Z,4.20
2019-05-26T20:07:38.669Z,5.47
2019-05-26T20:10:08.174Z,4.03
2019-05-26T20:12:36.754Z,4.43
2019-05-26T20:15:07.044Z,10.33
2019-05-26T20:17:35.488Z,9.03
2019-05-26T20:20:06.338Z,4.70
2019-05-26T20:22:34.783Z,4.80
2019-05-26T20:25:03.593Z,5.17
2019-05-26T20:27:32.050Z,7.10
2019-05-26T20:30:00.513Z,4.87
2019-05-26T20:32:28.923Z,5.23
2019-05-26T20:34:57.387Z,6.90
2019-05-26T20:37:25.857Z,5.90
2019-05-26T20:39:54.267Z,8.07
2019-05-26T20:42:22.769Z,12.90
2019-05-26T20:44:51.227Z,5.77
2019-05-26T20:47:19.648Z,6.30
2019-05-26T20:49:48.144Z,13.30
2019-05-26T20:52:16.650Z,8.90
2019-05-26T20:54:45.074Z,13.07
2019-05-26T20:57:13.527Z,5.90
2019-05-26T20:59:42.210Z,11.53
2019-05-26T21:02:10.629Z,11.43
2019-05-26T21:04:39.131Z,10.80
2019-05-26T21:07:07.786Z,6.63
2019-05-26T21:09:36.213Z,9.40
2019-05-26T21:12:04.805Z,9.23
2019-05-26T21:14:33.285Z,10.27
2019-05-26T21:17:01.744Z,11.63
2019-05-26T21:19:30.166Z,7.10
2019-05-26T21:21:58.621Z,10.70
2019-05-26T21:24:27.030Z,8.00
2019-05-26T21:26:55.525Z,12.20
2019-05-26T21:29:24.697Z,10.03
2019-05-26T21:31:53.169Z,9.83
2019-05-26T21:34:21.863Z,8.90
2019-05-26T21:36:50.370Z,11.67
2019-05-26T21:39:18.852Z,12.33
2019-05-26T21:41:47.290Z,10.67
2019-05-26T21:44:15.742Z,12.90
2019-05-26T21:46:44.172Z,12.20
2019-05-26T21:49:12.604Z,12.30
2019-05-26T21:51:41.082Z,11.10
2019-05-26T21:54:09.500Z,15.20
2019-05-26T21:56:37.950Z,16.80
2019-05-26T21:59:06.502Z,10.80
2019-05-26T22:01:35.025Z,13.17
2019-05-26T22:04:05.522Z,15.00
2019-05-26T22:06:33.965Z,15.90
2019-05-26T22:09:02.400Z,12.13
2019-05-26T22:11:30.898Z,17.13
2019-05-26T22:13:59.327Z,16.83
2019-05-26T22:16:27.763Z,13.80
2019-05-26T22:18:59.495Z,15.37
2019-05-26T22:21:26.554Z,14.40
2019-05-26T22:23:55.000Z,18.73
2019-05-26T22:26:23.456Z,10.23
2019-05-26T22:28:52.078Z,15.90
2019-05-26T22:31:20.534Z,16.53
2019-05-26T22:33:48.970Z,19.50
2019-05-26T22:36:17.412Z,11.23
2019-05-26T22:38:45.839Z,14.13
2019-05-26T22:41:14.303Z,17.27
2019-05-26T22:43:42.746Z,14.20
2019-05-26T22:46:11.208Z,12.67
2019-05-26T22:48:39.661Z,15.77
2019-05-26T22:51:08.094Z,12.83
2019-05-26T22:53:36.581Z,10.67
2019-05-26T22:56:05.072Z,12.80
2019-05-26T22:58:33.503Z,11.63
2019-05-26T23:01:02.036Z,13.13
2019-05-26T23:03:30.449Z,11.20
2019-05-26T23:05:58.890Z,8.50
2019-05-26T23:08:27.312Z,13.83
2019-05-26T23:10:55.728Z,10.83
2019-05-26T23:13:24.174Z,8.27
2019-05-26T23:15:52.597Z,8.63
2019-05-26T23:18:21.012Z,19.53
2019-05-26T23:20:57.407Z,9.33
2019-05-26T23:23:25.833Z,8.47
2019-05-26T23:25:54.764Z,10.00
2019-05-26T23:28:23.232Z,8.30
2019-05-26T23:30:51.666Z,8.87
2019-05-26T23:33:20.092Z,7.87
2019-05-26T23:35:48.539Z,6.17
2019-05-26T23:38:16.982Z,10.27
2019-05-26T23:40:45.442Z,8.30
2019-05-26T23:43:13.884Z,7.13
2019-05-26T23:45:42.293Z,7.27
2019-05-26T23:48:10.725Z,7.80
2019-05-26T23:50:39.167Z,5.60
2019-05-26T23:53:07.582Z,6.40
2019-05-26T23:55:36.016Z,7.43
2019-05-26T23:58:04.502Z,6.37
